Time;durP1;ratioP1;P1;durP2;ratioP2;P2;SDS_P1;SDS_P2;PMS_P1;PMS_P2;Temp;Humidity;BMP_temperature;BMP_pressure;BME280_temperature;BME280_humidity;BME280_pressure;Samples;Min_cycle;Max_cycle;Signal;HPM_P1;HPM_P2
2023/05/14 00:00:35;;;;;;;36.70;19.20;;;;;;;13.56;78.10;100015.77;106107;1253;76214;-73
2023/05/14 00:03:02;;;;;;;41.80;19.20;;;;;;;13.52;78.60;100015.48;106051;1253;68276;-75
2023/05/14 00:05:29;;;;;;;36.50;18.50;;;;;;;13.52;78.56;100016.34;107840;1253;73445;-75
2023/05/14 00:07:56;;;;;;;30.20;17.70;;;;;;;13.68;78.03;100016.69;107512;1254;62171;-76
2023/05/14 00:10:23;;;;;;;25.80;15.20;;;;;;;13.77;77.54;100016.78;105765;1260;62254;-75
2023/05/14 00:12:50;;;;;;;32.60;15.60;;;;;;;13.79;76.95;100017.98;105818;1254;75577;-78
2023/05/14 00:15:17;;;;;;;33.10;16.30;;;;;;;13.76;77.21;100018.06;105894;1257;68901;-76
2023/05/14 00:17:44;;;;;;;32.70;17.50;;;;;;;13.81;76.47;100020.63;105931;1255;70833;-74
2023/05/14 00:20:11;;;;;;;30.90;14.50;;;;;;;13.86;75.48;100020.48;105833;1253;62557;-75
2023/05/14 00:22:38;;;;;;;28.80;14.70;;;;;;;13.89;74.58;100022.23;105875;1253;61981;-75
2023/05/14 00:25:06;;;;;;;29.20;16.00;;;;;;;13.88;74.23;100025.40;105897;1253;76279;-73
2023/05/14 00:27:34;;;;;;;46.20;24.00;;;;;;;13.93;74.06;100027.85;105934;1254;68740;-75
2023/05/14 00:30:01;;;;;;;99.70;38.50;;;;;;;13.92;74.46;100027.31;106014;1253;73553;-74
2023/05/14 00:32:29;;;;;;;68.40;31.50;;;;;;;13.88;75.05;100027.61;105916;1253;62090;-74
2023/05/14 00:34:56;;;;;;;75.80;31.90;;;;;;;13.80;75.93;100028.78;105987;1257;61920;-74
2023/05/14 00:37:23;;;;;;;67.70;32.60;;;;;;;13.84;77.46;100029.39;106137;1252;74704;-73
2023/05/14 00:39:50;;;;;;;41.00;18.90;;;;;;;13.90;77.08;100030.01;106111;1257;68705;-75
2023/05/14 00:42:17;;;;;;;39.50;17.80;;;;;;;13.89;76.54;100031.23;106027;1253;72836;-74
2023/05/14 00:44:44;;;;;;;34.80;17.40;;;;;;;13.91;76.09;100029.14;105988;1253;62099;-75
2023/05/14 00:47:11;;;;;;;30.70;16.20;;;;;;;13.91;76.65;100028.23;106069;1253;62053;-74
2023/05/14 00:49:39;;;;;;;21.20;14.00;;;;;;;13.96;76.87;100031.27;106032;1253;75782;-74
2023/05/14 00:52:06;;;;;;;;;;;;;;;13.88;77.83;100031.30;105899;1253;69843;-74
2023/05/14 00:54:33;;;;;;;29.30;14.80;;;;;;;14.01;77.49;100035.23;106005;1257;71910;-74
2023/05/14 00:57:00;;;;;;;73.80;38.30;;;;;;;14.00;78.10;100032.79;106142;1253;62241;-74
2023/05/14 00:59:27;;;;;;;46.70;30.50;;;;;;;14.22;76.36;100033.56;106045;1253;62160;-75
2023/05/14 01:01:54;;;;;;;39.50;21.40;;;;;;;14.27;75.74;100046.15;106116;1256;75487;-73
2023/05/14 01:04:21;;;;;;;36.10;20.50;;;;;;;14.31;75.30;100043.30;106117;1253;68637;-74
2023/05/14 01:06:57;;;;;;;42.20;27.70;;;;;;;14.29;75.30;100042.76;106100;1254;73556;-72
2023/05/14 01:09:40;;;;;;;43.60;27.10;;;;;;;14.34;74.85;100035.91;106067;1253;62146;-74
2023/05/14 01:12:06;;;;;;;29.40;20.60;;;;;;;14.32;74.72;100035.48;106070;1254;62139;-74
2023/05/14 01:15:05;;;;;;;37.60;21.90;;;;;;;14.30;74.88;100038.54;106091;1252;74289;-74
2023/05/14 01:17:32;;;;;;;;;;;;;;;14.12;76.52;100037.52;105902;1254;68593;-75
2023/05/14 01:20:00;;;;;;;69.20;36.90;;;;;;;14.13;76.68;100041.10;105848;1254;70889;-73
2023/05/14 01:22:27;;;;;;;89.10;46.20;;;;;;;14.15;76.38;100038.08;105879;1257;62120;-73
2023/05/14 01:24:55;;;;;;;106.10;50.00;;;;;;;14.16;75.68;100039.70;106147;1257;61944;-74
2023/05/14 01:27:43;;;;;;;80.20;48.00;;;;;;;14.26;74.53;100040.98;106234;1253;76223;-74
2023/05/14 01:30:24;;;;;;;83.10;46.70;;;;;;;14.38;74.10;100035.83;105757;1264;67723;-72
2023/05/14 01:32:53;;;;;;;48.30;27.30;;;;;;;14.42;74.30;100031.02;105829;1260;73704;-74
2023/05/14 01:35:21;;;;;;;43.20;24.40;;;;;;;14.42;74.13;100031.39;105799;1260;62927;-74
2023/05/14 01:37:48;;;;;;;54.40;28.30;;;;;;;14.45;73.38;100029.84;105760;1261;62063;-74
2023/05/14 01:40:15;;;;;;;37.80;23.70;;;;;;;14.56;72.82;100031.83;105521;1261;76114;-74
2023/05/14 01:42:42;;;;;;;35.70;18.30;;;;;;;14.52;73.26;100032.54;105517;1259;69625;-75
2023/05/14 01:45:09;;;;;;;33.00;18.70;;;;;;;14.56;73.28;100035.55;105544;1263;73110;-74
2023/05/14 01:47:37;;;;;;;34.40;21.40;;;;;;;14.42;74.78;100029.45;105441;1259;62338;-74
2023/05/14 01:50:04;;;;;;;30.70;18.50;;;;;;;14.42;75.33;100029.12;105391;1260;62042;-73
2023/05/14 01:52:31;;;;;;;35.70;20.10;;;;;;;14.28;75.89;100022.83;105291;1265;76507;-76
2023/05/14 01:54:58;;;;;;;40.80;26.00;;;;;;;14.23;75.52;100021.70;105391;1260;68464;-77
2023/05/14 01:57:25;;;;;;;29.10;18.20;;;;;;;14.19;75.79;100019.63;105400;1260;73590;-73
2023/05/14 01:59:53;;;;;;;35.70;18.70;;;;;;;14.11;76.07;100025.65;105466;1259;62383;-73
2023/05/14 02:02:20;;;;;;;42.40;19.90;;;;;;;13.99;77.38;100021.65;105472;1261;62035;-74
2023/05/14 02:04:46;;;;;;;41.20;21.10;;;;;;;13.98;77.72;100020.53;105458;1264;75297;-74
2023/05/14 02:07:13;;;;;;;42.10;20.50;;;;;;;14.05;77.43;100018.29;105558;1254;68878;-75
2023/05/14 02:09:40;;;;;;;41.90;21.80;;;;;;;14.06;77.53;100020.61;105834;1253;71996;-74
2023/05/14 02:12:08;;;;;;;24.50;18.50;;;;;;;14.09;77.32;100017.98;105917;1253;61999;-73
2023/05/14 02:14:34;;;;;;;57.30;20.70;;;;;;;14.13;76.88;100012.11;105925;1253;62134;-75
2023/05/14 02:17:02;;;;;;;31.50;21.60;;;;;;;14.04;77.58;100014.19;106119;1253;76541;-74
2023/05/14 02:19:29;;;;;;;39.10;22.00;;;;;;;13.94;78.44;100016.48;106123;1253;68843;-74
2023/05/14 02:21:58;;;;;;;63.50;24.40;;;;;;;13.96;78.18;100012.54;105905;1257;72846;-75
2023/05/14 02:24:25;;;;;;;63.60;23.00;;;;;;;13.96;78.37;100016.27;106085;1253;63050;-73
2023/05/14 02:26:52;;;;;;;83.10;26.50;;;;;;;14.02;78.19;100018.92;106102;1254;62524;-75
2023/05/14 02:29:19;;;;;;;69.60;24.70;;;;;;;14.06;77.96;100014.67;106033;1253;74882;-74
2023/05/14 02:31:46;;;;;;;128.10;30.70;;;;;;;14.03;78.26;100016.13;106079;1256;66731;-75
2023/05/14 02:34:12;;;;;;;110.80;31.30;;;;;;;14.02;78.77;100014.66;105871;1253;73586;-80
2023/05/14 02:36:39;;;;;;;57.70;25.70;;;;;;;14.04;79.23;100009.96;108342;1252;62642;-74
2023/05/14 02:39:06;;;;;;;48.10;23.40;;;;;;;13.94;80.95;100009.08;109593;1253;59834;-74
2023/05/14 02:41:33;;;;;;;37.40;23.30;;;;;;;13.90;80.87;100008.41;109544;1252;75497;-75
2023/05/14 02:44:00;;;;;;;38.70;20.80;;;;;;;14.02;79.46;100011.05;106214;1255;68545;-75
2023/05/14 02:46:27;;;;;;;38.60;21.80;;;;;;;13.91;79.93;100012.89;106168;1256;71570;-74
2023/05/14 02:48:54;;;;;;;45.40;24.30;;;;;;;13.89;80.27;100011.70;106116;1256;61998;-74
2023/05/14 02:51:21;;;;;;;37.40;21.90;;;;;;;13.80;81.10;100012.21;106125;1256;62028;-76
2023/05/14 02:53:48;;;;;;;29.30;17.20;;;;;;;13.85;80.64;100012.71;106268;1254;73447;-73
2023/05/14 02:56:15;;;;;;;31.00;16.90;;;;;;;13.99;80.32;100014.23;105950;1259;68991;-74
2023/05/14 02:58:42;;;;;;;30.50;17.30;;;;;;;14.06;78.97;100015.43;105855;1253;71553;-75
2023/05/14 03:01:08;;;;;;;21.50;13.40;;;;;;;14.14;78.37;100009.41;105754;1254;62124;-75
2023/05/14 03:03:37;;;;;;;33.50;15.00;;;;;;;14.25;77.47;100014.09;105893;1253;62105;-75
2023/05/14 03:06:04;;;;;;;19.30;15.00;;;;;;;14.34;77.06;100017.92;106062;1253;75537;-75
2023/05/14 03:08:31;;;;;;;23.70;12.40;;;;;;;14.44;76.55;100020.33;106508;1253;68225;-74
2023/05/14 03:10:58;;;;;;;22.60;13.30;;;;;;;14.52;75.77;100019.64;108015;1253;72351;-75
2023/05/14 03:13:25;;;;;;;194.20;94.70;;;;;;;14.48;75.35;100026.16;106713;1254;62604;-76
2023/05/14 03:15:53;;;;;;;280.60;137.90;;;;;;;14.50;75.25;100033.89;105896;1253;62143;-73
2023/05/14 03:18:20;;;;;;;;;;;;;;;14.67;74.57;100031.77;106225;1254;76531;-73
2023/05/14 03:20:47;;;;;;;182.80;90.20;;;;;;;14.85;73.37;100028.60;106165;1256;69050;-74
2023/05/14 03:23:14;;;;;;;162.40;68.70;;;;;;;15.02;72.72;100028.48;106074;1254;72589;-79
2023/05/14 03:25:41;;;;;;;136.90;61.70;;;;;;;15.20;71.88;100026.73;105850;1253;62838;-73
2023/05/14 03:28:08;;;;;;;54.70;29.90;;;;;;;15.33;71.25;100027.59;106132;1256;61934;-73
2023/05/14 03:30:36;;;;;;;63.80;32.30;;;;;;;15.43;70.55;100027.13;106027;1254;75864;-75
2023/05/14 03:33:03;;;;;;;45.90;25.90;;;;;;;15.55;70.27;100031.73;106172;1256;68387;-75
2023/05/14 03:35:30;;;;;;;54.00;27.80;;;;;;;15.69;68.94;100027.61;105868;1254;72774;-78
2023/05/14 03:37:58;;;;;;;44.10;21.70;;;;;;;15.73;67.32;100029.51;106046;1253;62774;-75
2023/05/14 03:40:25;;;;;;;36.60;19.10;;;;;;;15.91;65.79;100035.17;106042;1254;62005;-78
2023/05/14 03:42:53;;;;;;;43.40;21.60;;;;;;;15.93;64.42;100038.90;106107;1254;74636;-74
2023/05/14 03:45:20;;;;;;;40.30;18.20;;;;;;;15.88;65.17;100041.47;106130;1254;69616;-75
2023/05/14 03:47:46;;;;;;;35.00;20.90;;;;;;;16.09;65.11;100042.23;106080;1256;73746;-74
2023/05/14 03:50:13;;;;;;;53.70;34.10;;;;;;;16.20;64.34;100047.22;105819;1259;63005;-75
2023/05/14 03:52:42;;;;;;;68.50;30.20;;;;;;;16.56;61.98;100046.74;105869;1252;62133;-74
2023/05/14 03:55:09;;;;;;;49.70;24.40;;;;;;;16.65;60.27;100042.18;105981;1256;75426;-75
2023/05/14 03:57:36;;;;;;;35.00;19.90;;;;;;;16.73;59.66;100042.71;105831;1257;68639;-75
2023/05/14 04:00:03;;;;;;;21.00;14.20;;;;;;;16.68;59.65;100046.05;106083;1253;73562;-72
2023/05/14 04:02:43;;;;;;;27.40;12.50;;;;;;;16.54;59.46;100046.05;106082;1254;62079;-74
2023/05/14 04:05:10;;;;;;;29.40;11.10;;;;;;;16.61;59.04;100048.33;105922;1254;62114;-75
2023/05/14 04:07:39;;;;;;;23.60;10.50;;;;;;;16.86;58.08;100056.75;106110;1254;76145;-74
2023/05/14 04:10:07;;;;;;;14.10;10.60;;;;;;;17.05;57.40;100063.80;105743;1253;68600;-73
2023/05/14 04:12:35;;;;;;;21.20;12.10;;;;;;;17.09;56.12;100061.05;105846;1253;73779;-74
2023/05/14 04:15:03;;;;;;;25.90;14.30;;;;;;;17.09;56.07;100059.54;106049;1254;62381;-74
2023/05/14 04:17:31;;;;;;;22.30;14.30;;;;;;;16.94;56.76;100059.28;105999;1253;62025;-74
2023/05/14 04:20:01;;;;;;;27.10;15.10;;;;;;;16.97;56.27;100056.88;105846;1254;74214;-73
2023/05/14 04:22:28;;;;;;;17.60;10.30;;;;;;;16.71;57.21;100054.70;105825;1253;68740;-74
2023/05/14 04:24:54;;;;;;;15.00;10.30;;;;;;;16.57;57.71;100054.92;105880;1257;72560;-75
2023/05/14 04:27:21;;;;;;;16.80;10.00;;;;;;;16.68;57.89;100053.38;105802;1253;63056;-74
2023/05/14 04:29:48;;;;;;;17.00;10.10;;;;;;;16.81;57.03;100053.90;105813;1253;62028;-73
2023/05/14 04:32:16;;;;;;;12.60;8.50;;;;;;;17.02;56.23;100056.94;105869;1257;76245;-75
2023/05/14 04:34:43;;;;;;;14.70;8.60;;;;;;;17.04;55.53;100057.46;105985;1256;67768;-74
2023/05/14 04:37:10;;;;;;;14.70;8.60;;;;;;;17.20;54.81;100061.77;106091;1254;72076;-75
2023/05/14 04:39:37;;;;;;;15.60;8.90;;;;;;;17.25;53.39;100058.25;106079;1252;62140;-73
2023/05/14 04:42:05;;;;;;;11.20;8.50;;;;;;;17.57;53.59;100064.17;106133;1253;62139;-76
2023/05/14 04:44:33;;;;;;;23.60;9.40;;;;;;;18.09;51.96;100065.55;106145;1252;75835;-75
2023/05/14 04:47:01;;;;;;;10.60;9.40;;;;;;;18.75;48.96;100068.19;106145;1254;68669;-73
2023/05/14 04:49:28;;;;;;;16.10;8.60;;;;;;;18.92;47.93;100069.23;105869;1257;73648;-74
2023/05/14 04:51:55;;;;;;;26.10;16.10;;;;;;;19.27;48.29;100069.48;106111;1253;62110;-74
2023/05/14 04:54:22;;;;;;;43.30;25.20;;;;;;;19.65;47.52;100074.35;106068;1256;62555;-77
2023/05/14 04:56:49;;;;;;;29.40;18.60;;;;;;;19.80;46.33;100080.59;106085;1252;73704;-74
2023/05/14 04:59:16;;;;;;;16.20;10.20;;;;;;;19.60;46.19;100080.54;106082;1256;67667;-74
2023/05/14 05:01:43;;;;;;;12.70;9.00;;;;;;;19.32;47.03;100079.45;105835;1257;72609;-75
2023/05/14 05:04:10;;;;;;;15.30;8.50;;;;;;;19.67;46.13;100077.64;105799;1257;62151;-74
2023/05/14 05:06:38;;;;;;;14.80;8.00;;;;;;;19.91;44.98;100072.07;105864;1253;62056;-75
2023/05/14 05:09:05;;;;;;;14.50;8.20;;;;;;;20.37;44.48;100070.89;105864;1253;76638;-73
2023/05/14 05:11:31;;;;;;;40.40;10.70;;;;;;;20.86;44.23;100067.75;105912;1253;69697;-75
2023/05/14 05:13:59;;;;;;;15.10;7.10;;;;;;;21.08;43.40;100070.05;106004;1257;73423;-76
2023/05/14 05:16:27;;;;;;;24.00;9.20;;;;;;;21.33;42.74;100070.25;105858;1253;62091;-75
2023/05/14 05:18:54;;;;;;;26.40;13.50;;;;;;;21.90;42.15;100076.57;105878;1257;61982;-75
2023/05/14 05:21:21;;;;;;;30.90;15.30;;;;;;;22.32;41.47;100081.23;105878;1256;74967;-74
2023/05/14 05:23:48;;;;;;;41.60;20.30;;;;;;;22.93;40.63;100082.91;105851;1253;69787;-75
2023/05/14 05:26:15;;;;;;;17.10;9.50;;;;;;;23.14;39.66;100083.14;105886;1253;72610;-76
2023/05/14 05:28:42;;;;;;;19.80;11.90;;;;;;;23.45;39.50;100084.86;105910;1257;62040;-76
2023/05/14 05:31:09;;;;;;;21.40;12.20;;;;;;;23.71;38.82;100084.84;105911;1253;61975;-75
2023/05/14 05:33:37;;;;;;;26.10;12.50;;;;;;;23.84;38.53;100086.33;105890;1257;75556;-73
2023/05/14 05:36:04;;;;;;;20.70;12.70;;;;;;;23.89;37.88;100087.78;106811;1253;69814;-75
2023/05/14 05:38:31;;;;;;;14.70;10.00;;;;;;;24.34;37.39;100087.20;106071;1254;74060;-75
2023/05/14 05:40:58;;;;;;;22.00;8.30;;;;;;;24.84;36.48;100086.32;106068;1256;63116;-75
2023/05/14 05:43:27;;;;;;;14.40;8.30;;;;;;;25.18;36.04;100084.11;106152;1255;61952;-75
2023/05/14 05:45:54;;;;;;;10.60;7.40;;;;;;;25.20;35.38;100082.80;106123;1252;75513;-76
2023/05/14 05:48:21;;;;;;;25.50;10.10;;;;;;;25.28;35.43;100086.12;106069;1253;67910;-76
2023/05/14 05:50:48;;;;;;;19.10;14.30;;;;;;;25.67;34.77;100087.05;106106;1253;72287;-74
2023/05/14 05:53:17;;;;;;;23.50;14.10;;;;;;;25.64;34.47;100090.23;106049;1253;62230;-76
2023/05/14 05:55:44;;;;;;;27.40;13.50;;;;;;;25.82;33.96;100091.73;106089;1253;62048;-75
2023/05/14 05:58:14;;;;;;;25.60;13.60;;;;;;;26.00;34.20;100088.69;106148;1255;75919;-75
2023/05/14 06:00:41;;;;;;;128.80;94.90;;;;;;;26.45;33.66;100097.06;106204;1253;67696;-77
2023/05/14 06:03:08;;;;;;;62.40;29.00;;;;;;;26.95;33.21;100101.19;106094;1253;72838;-75
2023/05/14 06:05:36;;;;;;;35.80;19.20;;;;;;;27.62;32.80;100106.33;106114;1253;62038;-73
2023/05/14 06:08:03;;;;;;;43.10;19.00;;;;;;;28.03;30.84;100110.48;106073;1253;62143;-76
2023/05/14 06:10:30;;;;;;;25.90;14.40;;;;;;;28.19;31.08;100112.69;106042;1256;76468;-77
2023/05/14 06:12:57;;;;;;;37.40;21.70;;;;;;;28.13;30.82;100111.13;106080;1253;67597;-75
2023/05/14 06:15:23;;;;;;;32.80;16.80;;;;;;;28.09;31.03;100112.06;108011;1253;71544;-77
2023/05/14 06:17:50;;;;;;;26.70;11.50;;;;;;;28.51;30.62;100111.13;107763;1253;61936;-75
2023/05/14 06:20:18;;;;;;;25.50;9.70;;;;;;;28.91;30.53;100112.69;105977;1253;62064;-74
2023/05/14 06:22:44;;;;;;;30.60;20.00;;;;;;;29.12;29.26;100114.14;105979;1253;76364;-75
2023/05/14 06:25:11;;;;;;;43.20;23.70;;;;;;;29.52;28.93;100114.02;105933;1253;68198;-75
2023/05/14 06:27:39;;;;;;;29.20;15.70;;;;;;;29.83;28.60;100112.73;105867;1253;72457;-76
2023/05/14 06:30:06;;;;;;;16.90;7.10;;;;;;;29.96;28.30;100111.45;105963;1253;62080;-80
2023/05/14 06:32:33;;;;;;;11.30;5.60;;;;;;;30.20;27.88;100112.54;105962;1253;62150;-78
2023/05/14 06:35:00;;;;;;;15.10;8.20;;;;;;;30.57;27.19;100111.86;105946;1256;76154;-76
2023/05/14 06:37:27;;;;;;;10.90;6.70;;;;;;;31.03;26.94;100112.77;105855;1253;68572;-76
2023/05/14 06:39:54;;;;;;;14.90;6.90;;;;;;;31.05;26.17;100111.05;105886;1256;71590;-75
2023/05/14 06:42:25;;;;;;;13.20;5.60;;;;;;;31.25;26.03;100112.13;105886;1253;62076;-77
2023/05/14 06:44:52;;;;;;;20.80;15.50;;;;;;;30.93;26.07;100107.98;106014;1254;62082;-76
2023/05/14 06:47:18;;;;;;;11.00;6.80;;;;;;;30.81;25.63;100111.32;106163;1252;74545;-73
2023/05/14 06:49:45;;;;;;;17.00;7.70;;;;;;;30.85;25.49;100112.00;106027;1256;67727;-73
2023/05/14 06:52:12;;;;;;;16.50;5.30;;;;;;;31.16;25.35;100112.13;105894;1253;70755;-77
2023/05/14 06:54:39;;;;;;;15.80;6.60;;;;;;;31.23;24.65;100111.64;105853;1253;62156;-75
2023/05/14 06:57:06;;;;;;;13.10;6.10;;;;;;;30.84;25.27;100109.92;105832;1256;62096;-74
2023/05/14 06:59:33;;;;;;;60.80;26.80;;;;;;;30.80;25.47;100107.90;105857;1253;74749;-76
2023/05/14 07:02:00;;;;;;;12.70;6.00;;;;;;;30.83;24.55;100106.44;105854;1253;69746;-76
2023/05/14 07:04:27;;;;;;;29.20;21.90;;;;;;;31.07;24.10;100104.64;105837;1253;73236;-75
2023/05/14 07:06:53;;;;;;;13.40;9.40;;;;;;;31.50;24.26;100107.02;105867;1253;62123;-72
2023/05/14 07:09:21;;;;;;;18.00;4.90;;;;;;;31.68;23.13;100107.66;105876;1257;62102;-74
2023/05/14 07:11:48;;;;;;;11.10;6.40;;;;;;;31.60;22.83;100107.04;105862;1253;76185;-75
2023/05/14 07:14:15;;;;;;;5.90;3.30;;;;;;;31.16;22.18;100108.40;105922;1253;69644;-76
2023/05/14 07:16:42;;;;;;;13.00;4.30;;;;;;;31.28;22.20;100103.77;105853;1253;72463;-78
2023/05/14 07:19:09;;;;;;;9.80;4.10;;;;;;;31.46;22.17;100103.98;105843;1253;62078;-74
2023/05/14 07:21:37;;;;;;;9.40;3.80;;;;;;;31.24;21.73;100102.61;105923;1253;62160;-77
2023/05/14 07:24:04;;;;;;;18.40;5.60;;;;;;;31.31;21.76;100100.63;105901;1253;74426;-75
2023/05/14 07:26:30;;;;;;;;;;;;;;;31.00;21.52;100098.33;105876;1253;68381;-74
2023/05/14 07:28:57;;;;;;;5.20;2.50;;;;;;;30.73;21.43;100101.47;105874;1253;73503;-77
2023/05/14 07:31:24;;;;;;;26.20;4.50;;;;;;;30.90;21.34;100105.73;105890;1253;62144;-74
2023/05/14 07:33:52;;;;;;;11.60;3.00;;;;;;;31.07;21.28;100104.02;105908;1253;62053;-76
2023/05/14 07:36:18;;;;;;;13.00;3.70;;;;;;;31.18;21.51;100104.30;106077;1253;76424;-73
2023/05/14 07:38:45;;;;;;;15.30;3.90;;;;;;;31.03;21.67;100096.98;106078;1253;69783;-72
2023/05/14 07:41:12;;;;;;;6.60;3.60;;;;;;;31.29;20.96;100100.61;105747;1257;71681;-74
2023/05/14 07:43:40;;;;;;;8.80;3.50;;;;;;;31.91;20.53;100097.93;106055;1253;63162;-76
2023/05/14 07:46:06;;;;;;;23.80;5.10;;;;;;;32.34;20.23;100099.58;106224;1253;62147;-77
2023/05/14 07:48:33;;;;;;;9.00;4.00;;;;;;;32.55;20.19;100096.69;106026;1256;76433;-76
2023/05/14 07:51:00;;;;;;;7.30;3.40;;;;;;;32.40;19.93;100097.86;107410;1252;69649;-74
2023/05/14 07:53:28;;;;;;;9.60;3.20;;;;;;;32.22;20.03;100097.12;109456;1253;72389;-74
2023/05/14 07:55:55;;;;;;;17.60;3.50;;;;;;;32.27;20.38;100098.52;109563;1252;60144;-75
2023/05/14 07:58:22;;;;;;;;;;;;;;;32.59;20.31;100099.81;107003;1256;62007;-76
2023/05/14 08:00:49;;;;;;;2.90;2.60;;;;;;;32.80;19.85;100102.52;106132;1256;75287;-75
2023/05/14 08:03:16;;;;;;;;;;;;;;;32.98;19.34;100103.36;106107;1252;62069;-79
2023/05/14 08:05:44;;;;;;;10.30;3.40;;;;;;;32.90;18.96;100101.66;106102;1257;63864;-79
2023/05/14 08:08:11;;;;;;;5.50;2.10;;;;;;;32.41;19.00;100099.53;106146;1254;62063;-77
2023/05/14 08:10:38;;;;;;;15.40;7.40;;;;;;;32.11;19.18;100099.44;106082;1253;62416;-77
2023/05/14 08:13:05;;;;;;;18.50;10.70;;;;;;;32.00;19.38;100098.57;105808;1256;76255;-78
2023/05/14 08:15:32;;;;;;;8.40;4.80;;;;;;;29.03;21.45;100083.06;105927;1253;69886;-76
2023/05/14 08:18:02;;;;;;;10.70;3.90;;;;;;;27.09;23.61;100065.79;105951;1257;73274;-75
2023/05/14 08:20:30;;;;;;;17.40;13.90;;;;;;;27.03;24.16;100059.01;105838;1253;62425;-75
2023/05/14 08:22:59;;;;;;;13.70;6.90;;;;;;;26.49;22.88;100056.45;105969;1257;62141;-73
2023/05/14 08:25:26;;;;;;;10.20;8.00;;;;;;;26.38;23.96;100054.09;105955;1258;74904;-76
2023/05/14 08:27:53;;;;;;;11.70;7.70;;;;;;;26.52;23.80;100054.83;105859;1253;66743;-73
2023/05/14 08:30:21;;;;;;;7.70;4.40;;;;;;;26.53;23.99;100048.55;106088;1255;73568;-73
2023/05/14 08:32:49;;;;;;;5.20;3.40;;;;;;;26.61;23.65;100054.47;106070;1253;62104;-73
2023/05/14 08:35:16;;;;;;;4.70;3.20;;;;;;;26.54;23.69;100047.86;106187;1253;62106;-71
2023/05/14 08:37:44;;;;;;;7.80;2.80;;;;;;;26.40;23.85;100044.86;106399;1253;75704;-71
2023/05/14 08:40:11;;;;;;;11.40;3.30;;;;;;;26.77;23.93;100045.55;106151;1256;69458;-73
2023/05/14 08:42:41;;;;;;;;;;;;;;;27.17;23.91;100040.58;106044;1253;73098;-74
2023/05/14 08:45:16;;;;;;;5.80;2.80;;;;;;;27.08;23.37;100040.11;106482;1257;62112;-73
2023/05/14 08:47:49;;;;;;;5.20;2.80;;;;;;;27.09;23.48;100042.02;105978;1253;62076;-73
2023/05/14 08:50:16;;;;;;;5.20;2.20;;;;;;;27.26;22.63;100042.09;105940;1257;75137;-73
2023/05/14 08:52:44;;;;;;;;;;;;;;;27.21;21.28;100042.48;105829;1253;67540;-74
2023/05/14 08:55:11;;;;;;;6.70;2.00;;;;;;;27.31;21.12;100042.61;105880;1258;74016;-76
2023/05/14 08:57:39;;;;;;;3.30;1.90;;;;;;;27.40;21.21;100040.92;105940;1253;63093;-73
2023/05/14 09:00:13;;;;;;;4.90;2.70;;;;;;;27.02;21.94;100034.88;105871;1253;62153;-73
2023/05/14 09:02:40;;;;;;;4.20;2.10;;;;;;;27.22;21.86;100032.29;105602;1262;151706;-75
2023/05/14 09:05:08;;;;;;;;;;;;;;;27.01;21.73;100026.13;105919;1253;68533;-74
2023/05/14 09:07:37;;;;;;;9.00;2.70;;;;;;;26.58;22.84;100017.63;105914;1253;73713;-76
2023/05/14 09:10:07;;;;;;;3.20;2.50;;;;;;;26.60;22.38;100015.28;105769;1253;62231;-75
2023/05/14 09:12:35;;;;;;;4.80;2.40;;;;;;;26.65;22.43;100012.41;105968;1253;62124;-74
2023/05/14 09:15:02;;;;;;;4.40;2.30;;;;;;;26.91;22.76;100009.49;106054;1252;73751;-75
2023/05/14 09:17:31;;;;;;;5.20;2.60;;;;;;;27.11;21.75;100013.66;106045;1253;69808;-74
2023/05/14 09:19:58;;;;;;;24.20;4.10;;;;;;;27.43;21.60;100010.03;106025;1257;72758;-74
2023/05/14 09:22:28;;;;;;;9.10;2.50;;;;;;;27.55;21.03;100008.47;106806;1253;63051;-73
2023/05/14 09:25:08;;;;;;;3.60;2.40;;;;;;;27.38;21.14;100008.70;108947;1252;59622;-73
2023/05/14 09:27:38;;;;;;;2.60;2.10;;;;;;;27.35;20.41;100009.02;106465;1260;75255;-76
2023/05/14 09:30:10;;;;;;;4.40;1.90;;;;;;;27.55;20.14;100012.01;105963;1254;68730;-75
2023/05/14 09:32:56;;;;;;;3.50;2.30;;;;;;;27.43;19.95;100012.75;105767;1260;72772;-73
2023/05/14 09:35:23;;;;;;;26.50;3.50;;;;;;;27.59;20.02;100006.76;105417;1262;63067;-77
2023/05/14 09:37:52;;;;;;;7.60;2.20;;;;;;;27.43;19.44;100005.11;105547;1256;62149;-74
2023/05/14 09:40:20;;;;;;;5.50;2.40;;;;;;;27.04;19.87;100006.15;105724;1262;75397;-75
2023/05/14 09:42:48;;;;;;;4.00;2.60;;;;;;;27.30;20.02;100002.27;105741;1261;67358;-74
2023/05/14 09:45:15;;;;;;;5.00;2.30;;;;;;;27.50;20.76;100000.01;105354;1264;73300;-74
2023/05/14 09:47:43;;;;;;;3.20;2.20;;;;;;;27.41;20.89;99997.24;105454;1259;62162;-73
2023/05/14 09:50:11;;;;;;;3.90;2.40;;;;;;;27.43;21.59;99993.29;105540;1259;62253;-72
2023/05/14 09:52:38;;;;;;;3.20;2.10;;;;;;;27.75;21.32;99992.73;105481;1263;76338;-74
2023/05/14 09:55:06;;;;;;;4.40;3.10;;;;;;;27.87;20.48;99989.30;105477;1264;68003;-74
2023/05/14 09:57:34;;;;;;;6.10;2.80;;;;;;;28.01;20.71;99982.83;105470;1259;72836;-72
2023/05/14 10:00:02;;;;;;;6.10;2.80;;;;;;;28.19;20.19;99985.04;105529;1258;62202;-74
2023/05/14 10:02:51;;;;;;;28.20;21.70;;;;;;;28.12;20.37;99980.16;104959;1265;62110;-74
2023/05/14 10:05:20;;;;;;;6.10;4.90;;;;;;;28.53;20.89;99973.92;104878;1268;75523;-74
2023/05/14 10:07:47;;;;;;;3.20;2.50;;;;;;;28.55;20.61;99970.79;104977;1267;68904;-74
2023/05/14 10:10:15;;;;;;;3.70;3.30;;;;;;;28.05;21.00;99965.02;104994;1263;71566;-73
2023/05/14 10:12:44;;;;;;;7.50;2.90;;;;;;;27.59;21.91;99965.64;105534;1265;62155;-76
2023/05/14 10:15:19;;;;;;;9.10;3.30;;;;;;;27.56;21.77;99969.13;105345;1265;62264;-75
2023/05/14 10:17:48;;;;;;;4.30;2.60;;;;;;;27.12;21.87;99967.00;105319;1265;75847;-75
2023/05/14 10:20:16;;;;;;;4.40;2.70;;;;;;;26.48;22.59;99958.68;105391;1263;69679;-75
2023/05/14 10:22:43;;;;;;;3.20;2.70;;;;;;;25.97;22.95;99953.81;105000;1268;73345;-76
2023/05/14 10:25:10;;;;;;;5.00;2.40;;;;;;;25.73;23.70;99952.92;105320;1263;62444;-75
2023/05/14 10:27:38;;;;;;;5.10;3.20;;;;;;;25.37;24.17;99950.16;105337;1268;62351;-74
2023/05/14 10:30:10;;;;;;;6.70;3.00;;;;;;;25.24;24.32;99948.16;105375;1265;75333;-73
2023/05/14 10:32:37;;;;;;;9.10;2.90;;;;;;;25.21;24.29;99949.33;105392;1265;67265;-73
2023/05/14 10:35:19;;;;;;;8.20;3.80;;;;;;;25.22;24.65;99947.23;105326;1265;72402;-75
2023/05/14 10:37:46;;;;;;;11.60;3.10;;;;;;;24.96;24.87;99949.73;105358;1264;62063;-74
2023/05/14 10:40:13;;;;;;;8.00;3.10;;;;;;;24.95;24.92;99945.54;105591;1257;62008;-74
2023/05/14 10:42:42;;;;;;;8.50;3.50;;;;;;;24.84;25.97;99943.88;106119;1256;75657;-75
2023/05/14 10:45:11;;;;;;;13.40;3.90;;;;;;;24.12;27.94;99941.73;105903;1259;67575;-74
2023/05/14 10:47:39;;;;;;;4.10;2.90;;;;;;;23.54;28.71;99944.02;106157;1254;72714;-73
2023/05/14 10:50:07;;;;;;;3.80;3.00;;;;;;;23.49;29.82;99937.95;106119;1256;62059;-74
2023/05/14 10:52:35;;;;;;;4.90;3.50;;;;;;;23.36;27.05;99941.95;106139;1254;62037;-74
2023/05/14 10:55:08;;;;;;;5.60;3.20;;;;;;;23.34;29.39;99932.65;106043;1254;73902;-74
2023/05/14 10:57:38;;;;;;;4.80;2.90;;;;;;;23.46;28.48;99928.27;106153;1254;69716;-72
2023/05/14 11:00:07;;;;;;;17.60;4.20;;;;;;;23.39;27.19;99933.11;106095;1254;72463;-73
2023/05/14 11:02:37;;;;;;;8.90;3.40;;;;;;;23.50;28.24;99927.73;106089;1254;62316;-74
2023/05/14 11:05:09;;;;;;;4.80;3.30;;;;;;;23.66;28.62;99926.09;106122;1253;62134;-72
2023/05/14 11:07:37;;;;;;;26.40;19.50;;;;;;;23.59;27.81;99925.29;106114;1254;74741;-79
2023/05/14 11:10:08;;;;;;;14.20;10.40;;;;;;;24.00;27.62;99923.92;105961;1257;66803;-76
2023/05/14 11:12:40;;;;;;;8.10;4.80;;;;;;;23.71;27.73;99923.15;106075;1256;72462;-74